< < Back
Terminal Aerodrome Forecast


Current Version              Previous Versions:   1  2  3  4  5  6  7  8  9  

Terminal Aerodrome Forecast

565
FTUS44 KHUN 312340
TAFHSV
TAF
KHSV 312340Z 0100/0124 10004KT P6SM BKN150 OVC200
     FM010400 15008KT P6SM OVC120
     FM011300 17012KT P6SM SCT025 OVC080
     FM011600 17012KT P6SM VCSH BKN025 OVC050
     FM011800 19012KT P6SM SHRA BKN015 OVC025=

Latest METAR

284
SAUS80 KWBC 011300 RRF
MTRHSV
METAR KHSV 011253Z 15010KT 10SM BKN100 OVC150 09/M03 A3009 RMK AO2
SLP188 T00891028


USA.gov is the U.S. government's official web portal to all federal, state and local government web resources and services.